sensor_id;sensor_type;location;lat;lon;timestamp;temperature;humidity
38458;DHT22;24239;48.058;10.486;2022-07-09T00:00:59;11.30;99.90
38458;DHT22;24239;48.058;10.486;2022-07-09T00:03:24;11.30;99.90
38458;DHT22;24239;48.058;10.486;2022-07-09T00:05:50;11.30;99.90
38458;DHT22;24239;48.058;10.486;2022-07-09T00:08:16;11.20;99.90
38458;DHT22;24239;48.058;10.486;2022-07-09T00:10:42;11.20;99.90
38458;DHT22;24239;48.058;10.486;2022-07-09T00:13:07;11.10;99.90
38458;DHT22;24239;48.058;10.486;2022-07-09T00:15:33;11.00;99.90
38458;DHT22;24239;48.058;10.486;2022-07-09T00:17:59;11.00;99.90
38458;DHT22;24239;48.058;10.486;2022-07-09T00:20:25;10.90;99.90
38458;DHT22;24239;48.058;10.486;2022-07-09T00:22:53;11.00;99.90
38458;DHT22;24239;48.058;10.486;2022-07-09T00:25:18;11.00;99.90
38458;DHT22;24239;48.058;10.486;2022-07-09T00:27:44;11.00;99.90
38458;DHT22;24239;48.058;10.486;2022-07-09T00:30:10;10.90;99.90
38458;DHT22;24239;48.058;10.486;2022-07-09T00:32:36;10.80;99.90
38458;DHT22;24239;48.058;10.486;2022-07-09T00:35:05;10.80;99.90
38458;DHT22;24239;48.058;10.486;2022-07-09T00:37:31;10.90;99.90
38458;DHT22;24239;48.058;10.486;2022-07-09T00:39:56;10.90;99.90
38458;DHT22;24239;48.058;10.486;2022-07-09T00:42:25;10.80;99.90
38458;DHT22;24239;48.058;10.486;2022-07-09T00:44:51;10.80;99.90
38458;DHT22;24239;48.058;10.486;2022-07-09T00:47:17;10.80;99.90
38458;DHT22;24239;48.058;10.486;2022-07-09T00:49:43;10.80;99.90
38458;DHT22;24239;48.058;10.486;2022-07-09T00:52:12;10.70;99.90
38458;DHT22;24239;48.058;10.486;2022-07-09T00:54:39;10.70;99.90
38458;DHT22;24239;48.058;10.486;2022-07-09T00:57:07;10.70;99.90
38458;DHT22;24239;48.058;10.486;2022-07-09T00:59:38;10.70;99.90
38458;DHT22;24239;48.058;10.486;2022-07-09T01:02:09;10.60;99.90
38458;DHT22;24239;48.058;10.486;2022-07-09T01:04:35;10.50;99.90
38458;DHT22;24239;48.058;10.486;2022-07-09T01:07:02;10.50;99.90
38458;DHT22;24239;48.058;10.486;2022-07-09T01:09:28;10.50;99.90
38458;DHT22;24239;48.058;10.486;2022-07-09T01:11:55;10.40;99.90
38458;DHT22;24239;48.058;10.486;2022-07-09T01:14:21;10.50;99.90
38458;DHT22;24239;48.058;10.486;2022-07-09T01:16:56;10.50;99.90
38458;DHT22;24239;48.058;10.486;2022-07-09T01:19:22;10.50;99.90
38458;DHT22;24239;48.058;10.486;2022-07-09T01:21:47;10.50;99.90
38458;DHT22;24239;48.058;10.486;2022-07-09T01:24:13;10.30;99.90
38458;DHT22;24239;48.058;10.486;2022-07-09T01:26:39;10.30;99.90
38458;DHT22;24239;48.058;10.486;2022-07-09T01:29:04;10.30;99.90
38458;DHT22;24239;48.058;10.486;2022-07-09T01:31:30;10.30;99.90
38458;DHT22;24239;48.058;10.486;2022-07-09T01:33:56;10.30;99.90
38458;DHT22;24239;48.058;10.486;2022-07-09T01:36:21;10.30;99.90
38458;DHT22;24239;48.058;10.486;2022-07-09T01:38:47;10.30;99.90
38458;DHT22;24239;48.058;10.486;2022-07-09T01:41:13;10.20;99.90
38458;DHT22;24239;48.058;10.486;2022-07-09T01:43:39;10.20;99.90
38458;DHT22;24239;48.058;10.486;2022-07-09T01:46:04;10.20;99.90
38458;DHT22;24239;48.058;10.486;2022-07-09T01:48:32;10.20;99.90
38458;DHT22;24239;48.058;10.486;2022-07-09T01:50:59;10.20;99.90
38458;DHT22;24239;48.058;10.486;2022-07-09T01:53:25;10.20;99.90
38458;DHT22;24239;48.058;10.486;2022-07-09T01:55:51;10.20;99.90
38458;DHT22;24239;48.058;10.486;2022-07-09T01:58:16;10.10;99.90
38458;DHT22;24239;48.058;10.486;2022-07-09T02:00:42;10.10;99.90
38458;DHT22;24239;48.058;10.486;2022-07-09T02:03:08;10.10;99.90
38458;DHT22;24239;48.058;10.486;2022-07-09T02:05:34;10.10;99.90
38458;DHT22;24239;48.058;10.486;2022-07-09T02:08:00;10.10;99.90
38458;DHT22;24239;48.058;10.486;2022-07-09T02:10:26;10.10;99.90
38458;DHT22;24239;48.058;10.486;2022-07-09T02:12:52;10.10;99.90
38458;DHT22;24239;48.058;10.486;2022-07-09T02:15:18;10.10;99.90
38458;DHT22;24239;48.058;10.486;2022-07-09T02:17:43;10.10;99.90
38458;DHT22;24239;48.058;10.486;2022-07-09T02:20:09;10.10;99.90
38458;DHT22;24239;48.058;10.486;2022-07-09T02:22:37;10.00;99.90
38458;DHT22;24239;48.058;10.486;2022-07-09T02:25:04;10.00;99.90
38458;DHT22;24239;48.058;10.486;2022-07-09T02:27:30;9.90;99.90
38458;DHT22;24239;48.058;10.486;2022-07-09T02:29:56;9.80;99.90
38458;DHT22;24239;48.058;10.486;2022-07-09T02:32:22;9.70;99.90
38458;DHT22;24239;48.058;10.486;2022-07-09T02:34:47;9.70;99.90
38458;DHT22;24239;48.058;10.486;2022-07-09T02:37:13;9.70;99.90
38458;DHT22;24239;48.058;10.486;2022-07-09T02:39:39;9.70;99.90
38458;DHT22;24239;48.058;10.486;2022-07-09T02:42:05;9.70;99.90
38458;DHT22;24239;48.058;10.486;2022-07-09T02:44:31;9.70;99.90
38458;DHT22;24239;48.058;10.486;2022-07-09T02:46:56;9.70;99.90
38458;DHT22;24239;48.058;10.486;2022-07-09T02:49:22;9.70;99.90
38458;DHT22;24239;48.058;10.486;2022-07-09T02:51:49;9.60;99.90
38458;DHT22;24239;48.058;10.486;2022-07-09T02:54:14;9.70;99.90
38458;DHT22;24239;48.058;10.486;2022-07-09T02:56:40;9.60;99.90
38458;DHT22;24239;48.058;10.486;2022-07-09T02:59:06;9.60;99.90
38458;DHT22;24239;48.058;10.486;2022-07-09T03:01:32;9.50;99.90
38458;DHT22;24239;48.058;10.486;2022-07-09T03:03:58;9.60;99.90
38458;DHT22;24239;48.058;10.486;2022-07-09T03:06:23;9.50;99.90
38458;DHT22;24239;48.058;10.486;2022-07-09T03:08:49;9.50;99.90
38458;DHT22;24239;48.058;10.486;2022-07-09T03:11:15;9.50;99.90
38458;DHT22;24239;48.058;10.486;2022-07-09T03:13:40;9.50;99.90
38458;DHT22;24239;48.058;10.486;2022-07-09T03:16:06;9.40;99.90
38458;DHT22;24239;48.058;10.486;2022-07-09T03:18:32;9.40;99.90
38458;DHT22;24239;48.058;10.486;2022-07-09T03:21:01;9.40;99.90
38458;DHT22;24239;48.058;10.486;2022-07-09T03:23:27;9.30;99.90
38458;DHT22;24239;48.058;10.486;2022-07-09T03:25:53;9.30;99.90
38458;DHT22;24239;48.058;10.486;2022-07-09T03:28:19;9.40;99.90
38458;DHT22;24239;48.058;10.486;2022-07-09T03:30:44;9.30;99.90
38458;DHT22;24239;48.058;10.486;2022-07-09T03:33:10;9.30;99.90
38458;DHT22;24239;48.058;10.486;2022-07-09T03:35:36;9.30;99.90
38458;DHT22;24239;48.058;10.486;2022-07-09T03:38:04;9.30;99.90
38458;DHT22;24239;48.058;10.486;2022-07-09T03:40:30;9.30;99.90
38458;DHT22;24239;48.058;10.486;2022-07-09T03:42:56;9.30;99.90
38458;DHT22;24239;48.058;10.486;2022-07-09T03:45:21;9.30;99.90
38458;DHT22;24239;48.058;10.486;2022-07-09T03:47:47;9.30;99.90
38458;DHT22;24239;48.058;10.486;2022-07-09T03:50:14;9.30;99.90
38458;DHT22;24239;48.058;10.486;2022-07-09T03:52:40;9.30;99.90
38458;DHT22;24239;48.058;10.486;2022-07-09T03:55:06;9.30;99.90
38458;DHT22;24239;48.058;10.486;2022-07-09T03:57:31;9.30;99.90
38458;DHT22;24239;48.058;10.486;2022-07-09T03:59:58;9.40;99.90
38458;DHT22;24239;48.058;10.486;2022-07-09T04:02:23;9.50;99.90
38458;DHT22;24239;48.058;10.486;2022-07-09T04:04:49;9.50;99.90
38458;DHT22;24239;48.058;10.486;2022-07-09T04:07:15;9.40;99.90
38458;DHT22;24239;48.058;10.486;2022-07-09T04:09:41;9.50;99.90
38458;DHT22;24239;48.058;10.486;2022-07-09T04:12:07;9.60;99.90
38458;DHT22;24239;48.058;10.486;2022-07-09T04:14:33;9.60;99.90
38458;DHT22;24239;48.058;10.486;2022-07-09T04:16:58;9.60;99.90
38458;DHT22;24239;48.058;10.486;2022-07-09T04:19:24;9.60;99.90
38458;DHT22;24239;48.058;10.486;2022-07-09T04:21:50;9.80;99.90
38458;DHT22;24239;48.058;10.486;2022-07-09T04:24:16;10.10;99.90
38458;DHT22;24239;48.058;10.486;2022-07-09T04:26:42;10.80;99.90
38458;DHT22;24239;48.058;10.486;2022-07-09T04:29:11;11.80;99.90
38458;DHT22;24239;48.058;10.486;2022-07-09T04:31:37;12.90;99.90
38458;DHT22;24239;48.058;10.486;2022-07-09T04:34:03;13.90;99.90
38458;DHT22;24239;48.058;10.486;2022-07-09T04:36:28;14.50;99.90
38458;DHT22;24239;48.058;10.486;2022-07-09T04:38:57;15.20;99.90
38458;DHT22;24239;48.058;10.486;2022-07-09T04:41:23;15.80;99.90
38458;DHT22;24239;48.058;10.486;2022-07-09T04:43:49;16.00;99.90
38458;DHT22;24239;48.058;10.486;2022-07-09T04:46:14;15.90;99.90
38458;DHT22;24239;48.058;10.486;2022-07-09T04:48:42;16.10;99.90
38458;DHT22;24239;48.058;10.486;2022-07-09T04:51:07;16.20;99.90
38458;DHT22;24239;48.058;10.486;2022-07-09T04:53:33;16.40;99.90
38458;DHT22;24239;48.058;10.486;2022-07-09T04:55:59;16.80;99.90
38458;DHT22;24239;48.058;10.486;2022-07-09T04:58:25;17.10;99.90
38458;DHT22;24239;48.058;10.486;2022-07-09T05:00:50;17.30;99.90
38458;DHT22;24239;48.058;10.486;2022-07-09T05:03:16;17.00;99.90
38458;DHT22;24239;48.058;10.486;2022-07-09T05:05:42;16.70;99.90
38458;DHT22;24239;48.058;10.486;2022-07-09T05:08:07;16.10;99.90
38458;DHT22;24239;48.058;10.486;2022-07-09T05:10:33;15.40;99.90
38458;DHT22;24239;48.058;10.486;2022-07-09T05:12:59;15.10;99.90
38458;DHT22;24239;48.058;10.486;2022-07-09T05:15:24;15.30;99.90
38458;DHT22;24239;48.058;10.486;2022-07-09T05:17:50;15.80;99.90
38458;DHT22;24239;48.058;10.486;2022-07-09T05:20:16;16.50;99.90
38458;DHT22;24239;48.058;10.486;2022-07-09T05:22:44;17.10;99.90
38458;DHT22;24239;48.058;10.486;2022-07-09T05:25:09;17.20;99.90
38458;DHT22;24239;48.058;10.486;2022-07-09T05:27:44;16.80;99.90
38458;DHT22;24239;48.058;10.486;2022-07-09T05:30:10;16.10;99.90
38458;DHT22;24239;48.058;10.486;2022-07-09T05:32:36;15.40;99.90
38458;DHT22;24239;48.058;10.486;2022-07-09T05:35:02;15.00;99.90
38458;DHT22;24239;48.058;10.486;2022-07-09T05:37:29;15.10;99.90
38458;DHT22;24239;48.058;10.486;2022-07-09T05:39:57;15.10;99.90
38458;DHT22;24239;48.058;10.486;2022-07-09T05:42:23;14.90;99.90
38458;DHT22;24239;48.058;10.486;2022-07-09T05:44:49;14.60;99.90
38458;DHT22;24239;48.058;10.486;2022-07-09T05:47:15;14.80;99.90
38458;DHT22;24239;48.058;10.486;2022-07-09T05:49:41;15.60;99.90
38458;DHT22;24239;48.058;10.486;2022-07-09T05:52:07;16.50;99.90
38458;DHT22;24239;48.058;10.486;2022-07-09T05:54:33;16.60;99.90
38458;DHT22;24239;48.058;10.486;2022-07-09T05:56:58;16.50;99.90
38458;DHT22;24239;48.058;10.486;2022-07-09T05:59:24;16.10;99.90
38458;DHT22;24239;48.058;10.486;2022-07-09T06:01:50;15.80;99.90
38458;DHT22;24239;48.058;10.486;2022-07-09T06:04:15;15.50;99.90
38458;DHT22;24239;48.058;10.486;2022-07-09T06:06:41;15.40;99.90
38458;DHT22;24239;48.058;10.486;2022-07-09T06:09:07;15.30;99.90
38458;DHT22;24239;48.058;10.486;2022-07-09T06:11:33;15.20;99.90
38458;DHT22;24239;48.058;10.486;2022-07-09T06:14:00;15.20;99.90
38458;DHT22;24239;48.058;10.486;2022-07-09T06:16:25;15.00;99.90
38458;DHT22;24239;48.058;10.486;2022-07-09T06:19:00;15.00;99.90
38458;DHT22;24239;48.058;10.486;2022-07-09T06:21:26;15.10;99.90
38458;DHT22;24239;48.058;10.486;2022-07-09T06:23:52;15.30;99.90
38458;DHT22;24239;48.058;10.486;2022-07-09T06:26:17;15.40;99.90
38458;DHT22;24239;48.058;10.486;2022-07-09T06:28:43;15.60;99.90
38458;DHT22;24239;48.058;10.486;2022-07-09T06:31:09;15.60;99.90
38458;DHT22;24239;48.058;10.486;2022-07-09T06:33:35;15.60;99.90
38458;DHT22;24239;48.058;10.486;2022-07-09T06:36:01;15.60;99.90
38458;DHT22;24239;48.058;10.486;2022-07-09T06:38:28;15.70;99.90
38458;DHT22;24239;48.058;10.486;2022-07-09T06:40:54;15.80;99.90
38458;DHT22;24239;48.058;10.486;2022-07-09T06:43:22;16.00;99.90
38458;DHT22;24239;48.058;10.486;2022-07-09T06:45:48;16.10;99.90
38458;DHT22;24239;48.058;10.486;2022-07-09T06:48:14;16.30;99.90
38458;DHT22;24239;48.058;10.486;2022-07-09T06:50:39;16.40;99.90
38458;DHT22;24239;48.058;10.486;2022-07-09T06:53:05;16.40;99.90
38458;DHT22;24239;48.058;10.486;2022-07-09T06:55:31;16.30;99.90
38458;DHT22;24239;48.058;10.486;2022-07-09T06:57:57;16.40;99.90
38458;DHT22;24239;48.058;10.486;2022-07-09T07:00:23;16.40;99.90
38458;DHT22;24239;48.058;10.486;2022-07-09T07:02:49;16.30;99.90
38458;DHT22;24239;48.058;10.486;2022-07-09T07:05:15;16.10;99.90
38458;DHT22;24239;48.058;10.486;2022-07-09T07:07:41;16.00;99.90
38458;DHT22;24239;48.058;10.486;2022-07-09T07:10:07;16.10;99.90
38458;DHT22;24239;48.058;10.486;2022-07-09T07:12:34;16.00;99.90
38458;DHT22;24239;48.058;10.486;2022-07-09T07:15:00;16.00;99.90
38458;DHT22;24239;48.058;10.486;2022-07-09T07:17:26;16.10;99.90
38458;DHT22;24239;48.058;10.486;2022-07-09T07:19:51;16.30;99.90
38458;DHT22;24239;48.058;10.486;2022-07-09T07:22:17;16.50;99.90
38458;DHT22;24239;48.058;10.486;2022-07-09T07:24:43;16.90;99.90
38458;DHT22;24239;48.058;10.486;2022-07-09T07:27:09;17.20;99.90
38458;DHT22;24239;48.058;10.486;2022-07-09T07:29:34;17.50;99.90
38458;DHT22;24239;48.058;10.486;2022-07-09T07:32:00;17.80;99.90
38458;DHT22;24239;48.058;10.486;2022-07-09T07:34:26;18.20;99.90
38458;DHT22;24239;48.058;10.486;2022-07-09T07:36:51;18.40;99.90
38458;DHT22;24239;48.058;10.486;2022-07-09T07:39:18;18.50;99.90
38458;DHT22;24239;48.058;10.486;2022-07-09T07:41:47;18.60;99.90
38458;DHT22;24239;48.058;10.486;2022-07-09T07:44:13;18.70;99.90
38458;DHT22;24239;48.058;10.486;2022-07-09T07:46:38;18.80;99.90
38458;DHT22;24239;48.058;10.486;2022-07-09T07:49:04;18.90;99.90
38458;DHT22;24239;48.058;10.486;2022-07-09T07:51:30;18.80;99.90
38458;DHT22;24239;48.058;10.486;2022-07-09T07:53:55;18.90;99.90
38458;DHT22;24239;48.058;10.486;2022-07-09T07:56:21;18.80;99.90
38458;DHT22;24239;48.058;10.486;2022-07-09T07:58:47;18.90;99.90
38458;DHT22;24239;48.058;10.486;2022-07-09T08:01:13;19.00;99.90
38458;DHT22;24239;48.058;10.486;2022-07-09T08:03:39;19.00;98.60
38458;DHT22;24239;48.058;10.486;2022-07-09T08:06:07;18.90;97.30
38458;DHT22;24239;48.058;10.486;2022-07-09T08:08:33;18.80;98.70
38458;DHT22;24239;48.058;10.486;2022-07-09T08:10:59;18.80;99.50
38458;DHT22;24239;48.058;10.486;2022-07-09T08:13:26;18.80;99.90
38458;DHT22;24239;48.058;10.486;2022-07-09T08:15:54;18.90;99.80
38458;DHT22;24239;48.058;10.486;2022-07-09T08:18:20;18.90;99.70
38458;DHT22;24239;48.058;10.486;2022-07-09T08:20:45;18.90;99.60
38458;DHT22;24239;48.058;10.486;2022-07-09T08:23:18;18.80;98.90
38458;DHT22;24239;48.058;10.486;2022-07-09T08:25:43;18.70;99.90
38458;DHT22;24239;48.058;10.486;2022-07-09T08:28:09;18.70;99.80
38458;DHT22;24239;48.058;10.486;2022-07-09T08:30:35;18.70;99.30
38458;DHT22;24239;48.058;10.486;2022-07-09T08:33:02;18.70;99.10
38458;DHT22;24239;48.058;10.486;2022-07-09T08:35:28;18.60;99.70
38458;DHT22;24239;48.058;10.486;2022-07-09T08:37:54;18.70;99.80
38458;DHT22;24239;48.058;10.486;2022-07-09T08:40:20;18.70;99.20
38458;DHT22;24239;48.058;10.486;2022-07-09T08:42:48;18.70;98.90
38458;DHT22;24239;48.058;10.486;2022-07-09T08:45:16;18.80;98.80
38458;DHT22;24239;48.058;10.486;2022-07-09T08:47:42;18.70;98.60
38458;DHT22;24239;48.058;10.486;2022-07-09T08:50:09;18.70;99.20
38458;DHT22;24239;48.058;10.486;2022-07-09T08:52:36;18.60;99.90
38458;DHT22;24239;48.058;10.486;2022-07-09T08:55:04;18.70;99.00
38458;DHT22;24239;48.058;10.486;2022-07-09T08:57:30;18.80;99.30
38458;DHT22;24239;48.058;10.486;2022-07-09T08:59:57;18.90;99.50
38458;DHT22;24239;48.058;10.486;2022-07-09T09:02:22;19.00;98.40
38458;DHT22;24239;48.058;10.486;2022-07-09T09:04:48;19.10;98.80
38458;DHT22;24239;48.058;10.486;2022-07-09T09:07:18;19.20;98.40
38458;DHT22;24239;48.058;10.486;2022-07-09T09:09:45;19.30;99.40
38458;DHT22;24239;48.058;10.486;2022-07-09T09:12:12;19.40;98.20
38458;DHT22;24239;48.058;10.486;2022-07-09T09:14:38;19.40;98.70
38458;DHT22;24239;48.058;10.486;2022-07-09T09:17:08;19.50;97.40
38458;DHT22;24239;48.058;10.486;2022-07-09T09:19:40;19.70;96.60
38458;DHT22;24239;48.058;10.486;2022-07-09T09:22:07;19.90;96.60
38458;DHT22;24239;48.058;10.486;2022-07-09T09:24:34;20.20;96.00
38458;DHT22;24239;48.058;10.486;2022-07-09T09:27:01;20.50;96.20
38458;DHT22;24239;48.058;10.486;2022-07-09T09:29:27;20.70;95.00
38458;DHT22;24239;48.058;10.486;2022-07-09T09:31:54;20.80;94.90
38458;DHT22;24239;48.058;10.486;2022-07-09T09:34:21;20.90;95.30
38458;DHT22;24239;48.058;10.486;2022-07-09T09:36:49;20.90;95.40
38458;DHT22;24239;48.058;10.486;2022-07-09T09:39:30;20.90;95.70
38458;DHT22;24239;48.058;10.486;2022-07-09T09:42:00;20.90;96.30
38458;DHT22;24239;48.058;10.486;2022-07-09T09:44:33;21.00;95.40
38458;DHT22;24239;48.058;10.486;2022-07-09T09:47:05;21.20;95.00
38458;DHT22;24239;48.058;10.486;2022-07-09T09:49:33;21.20;95.80
38458;DHT22;24239;48.058;10.486;2022-07-09T09:52:10;21.10;95.70
38458;DHT22;24239;48.058;10.486;2022-07-09T09:54:37;21.00;94.90
38458;DHT22;24239;48.058;10.486;2022-07-09T09:57:08;20.80;95.10
38458;DHT22;24239;48.058;10.486;2022-07-09T09:59:39;20.50;95.40
38458;DHT22;24239;48.058;10.486;2022-07-09T10:02:06;20.30;95.40
38458;DHT22;24239;48.058;10.486;2022-07-09T10:04:32;20.20;95.80
38458;DHT22;24239;48.058;10.486;2022-07-09T10:06:58;20.10;95.90
38458;DHT22;24239;48.058;10.486;2022-07-09T10:09:24;20.10;97.10
38458;DHT22;24239;48.058;10.486;2022-07-09T10:11:53;20.20;97.90
38458;DHT22;24239;48.058;10.486;2022-07-09T10:16:51;20.50;96.40
38458;DHT22;24239;48.058;10.486;2022-07-09T10:19:30;20.50;96.90
38458;DHT22;24239;48.058;10.486;2022-07-09T10:22:00;20.80;96.60
38458;DHT22;24239;48.058;10.486;2022-07-09T10:24:30;20.90;96.50
38458;DHT22;24239;48.058;10.486;2022-07-09T10:27:09;21.10;95.80
38458;DHT22;24239;48.058;10.486;2022-07-09T10:29:56;21.20;95.70
38458;DHT22;24239;48.058;10.486;2022-07-09T10:32:29;21.30;93.00
38458;DHT22;24239;48.058;10.486;2022-07-09T10:34:57;21.10;91.60
38458;DHT22;24239;48.058;10.486;2022-07-09T10:37:40;21.10;93.00
38458;DHT22;24239;48.058;10.486;2022-07-09T10:40:19;21.20;93.40
38458;DHT22;24239;48.058;10.486;2022-07-09T10:42:57;21.50;93.60
38458;DHT22;24239;48.058;10.486;2022-07-09T10:45:35;21.60;92.60
38458;DHT22;24239;48.058;10.486;2022-07-09T10:48:02;21.50;92.30
38458;DHT22;24239;48.058;10.486;2022-07-09T10:50:30;21.40;92.50
38458;DHT22;24239;48.058;10.486;2022-07-09T10:52:57;21.40;93.90
38458;DHT22;24239;48.058;10.486;2022-07-09T10:55:28;21.60;95.10
38458;DHT22;24239;48.058;10.486;2022-07-09T10:57:54;21.70;94.40
38458;DHT22;24239;48.058;10.486;2022-07-09T11:00:26;21.70;95.20
38458;DHT22;24239;48.058;10.486;2022-07-09T11:02:53;21.70;94.50
38458;DHT22;24239;48.058;10.486;2022-07-09T11:05:19;21.80;93.80
38458;DHT22;24239;48.058;10.486;2022-07-09T11:07:58;21.70;94.50
38458;DHT22;24239;48.058;10.486;2022-07-09T11:10:24;21.70;93.20
38458;DHT22;24239;48.058;10.486;2022-07-09T11:12:51;21.80;94.00
38458;DHT22;24239;48.058;10.486;2022-07-09T11:15:21;21.60;93.30
38458;DHT22;24239;48.058;10.486;2022-07-09T11:20:31;21.70;93.30
38458;DHT22;24239;48.058;10.486;2022-07-09T11:22:57;21.70;93.60
38458;DHT22;24239;48.058;10.486;2022-07-09T11:25:26;21.80;92.30
38458;DHT22;24239;48.058;10.486;2022-07-09T11:27:56;21.80;93.10
38458;DHT22;24239;48.058;10.486;2022-07-09T11:30:23;21.90;92.50
38458;DHT22;24239;48.058;10.486;2022-07-09T11:32:49;21.80;91.50
38458;DHT22;24239;48.058;10.486;2022-07-09T11:35:34;21.80;91.10
38458;DHT22;24239;48.058;10.486;2022-07-09T11:38:04;21.90;90.90
38458;DHT22;24239;48.058;10.486;2022-07-09T11:40:32;21.80;89.30
38458;DHT22;24239;48.058;10.486;2022-07-09T11:42:59;21.80;91.70
38458;DHT22;24239;48.058;10.486;2022-07-09T11:45:29;22.10;91.80
38458;DHT22;24239;48.058;10.486;2022-07-09T11:48:21;22.50;90.40
38458;DHT22;24239;48.058;10.486;2022-07-09T11:50:47;23.00;91.30
38458;DHT22;24239;48.058;10.486;2022-07-09T11:53:20;23.40;88.40
38458;DHT22;24239;48.058;10.486;2022-07-09T11:55:57;23.80;87.30
38458;DHT22;24239;48.058;10.486;2022-07-09T11:58:23;23.90;87.50
38458;DHT22;24239;48.058;10.486;2022-07-09T12:00:49;23.50;85.30
38458;DHT22;24239;48.058;10.486;2022-07-09T12:03:28;23.40;85.90
38458;DHT22;24239;48.058;10.486;2022-07-09T12:05:54;23.60;88.30
38458;DHT22;24239;48.058;10.486;2022-07-09T12:08:30;23.80;88.30
38458;DHT22;24239;48.058;10.486;2022-07-09T12:10:57;23.90;85.90
38458;DHT22;24239;48.058;10.486;2022-07-09T12:13:23;24.00;85.60
38458;DHT22;24239;48.058;10.486;2022-07-09T12:15:49;23.90;86.10
38458;DHT22;24239;48.058;10.486;2022-07-09T12:18:15;23.60;88.30
38458;DHT22;24239;48.058;10.486;2022-07-09T12:20:41;23.60;87.50
38458;DHT22;24239;48.058;10.486;2022-07-09T12:23:06;23.60;87.10
38458;DHT22;24239;48.058;10.486;2022-07-09T12:25:32;23.60;89.40
38458;DHT22;24239;48.058;10.486;2022-07-09T12:27:58;23.40;87.70
38458;DHT22;24239;48.058;10.486;2022-07-09T12:30:23;23.30;88.90
38458;DHT22;24239;48.058;10.486;2022-07-09T12:32:49;23.20;90.00
38458;DHT22;24239;48.058;10.486;2022-07-09T12:35:15;23.00;88.20
38458;DHT22;24239;48.058;10.486;2022-07-09T12:37:42;23.00;89.30
38458;DHT22;24239;48.058;10.486;2022-07-09T12:40:09;23.00;86.80
38458;DHT22;24239;48.058;10.486;2022-07-09T12:42:36;22.90;87.20
38458;DHT22;24239;48.058;10.486;2022-07-09T12:45:03;22.70;87.60
38458;DHT22;24239;48.058;10.486;2022-07-09T12:47:29;22.60;88.30
38458;DHT22;24239;48.058;10.486;2022-07-09T12:49:54;22.40;89.60
38458;DHT22;24239;48.058;10.486;2022-07-09T12:52:20;22.40;90.50
38458;DHT22;24239;48.058;10.486;2022-07-09T12:54:46;22.80;88.10
38458;DHT22;24239;48.058;10.486;2022-07-09T12:57:12;23.10;87.60
38458;DHT22;24239;48.058;10.486;2022-07-09T12:59:38;23.50;86.70
38458;DHT22;24239;48.058;10.486;2022-07-09T13:02:05;23.60;84.40
38458;DHT22;24239;48.058;10.486;2022-07-09T13:04:31;23.60;85.60
38458;DHT22;24239;48.058;10.486;2022-07-09T13:06:57;23.60;85.00
38458;DHT22;24239;48.058;10.486;2022-07-09T13:09:23;23.40;85.00
38458;DHT22;24239;48.058;10.486;2022-07-09T13:11:49;23.50;85.30
38458;DHT22;24239;48.058;10.486;2022-07-09T13:14:15;23.60;83.80
38458;DHT22;24239;48.058;10.486;2022-07-09T13:16:41;23.60;84.20
38458;DHT22;24239;48.058;10.486;2022-07-09T13:19:07;23.60;85.40
38458;DHT22;24239;48.058;10.486;2022-07-09T13:21:33;23.80;86.20
38458;DHT22;24239;48.058;10.486;2022-07-09T13:23:59;24.00;86.30
38458;DHT22;24239;48.058;10.486;2022-07-09T13:26:28;24.30;84.50
38458;DHT22;24239;48.058;10.486;2022-07-09T13:28:54;24.20;82.50
38458;DHT22;24239;48.058;10.486;2022-07-09T13:31:20;24.30;84.50
38458;DHT22;24239;48.058;10.486;2022-07-09T13:33:47;24.60;82.40
38458;DHT22;24239;48.058;10.486;2022-07-09T13:36:13;24.90;83.00
38458;DHT22;24239;48.058;10.486;2022-07-09T13:38:39;25.30;81.10
38458;DHT22;24239;48.058;10.486;2022-07-09T13:41:04;25.40;81.70
38458;DHT22;24239;48.058;10.486;2022-07-09T13:43:30;25.40;80.30
38458;DHT22;24239;48.058;10.486;2022-07-09T13:45:57;25.50;78.90
38458;DHT22;24239;48.058;10.486;2022-07-09T13:48:24;25.30;79.50
38458;DHT22;24239;48.058;10.486;2022-07-09T13:50:50;25.10;80.90
38458;DHT22;24239;48.058;10.486;2022-07-09T13:53:16;24.90;79.60
38458;DHT22;24239;48.058;10.486;2022-07-09T13:55:43;24.70;80.00
38458;DHT22;24239;48.058;10.486;2022-07-09T13:58:09;24.60;82.00
38458;DHT22;24239;48.058;10.486;2022-07-09T14:00:34;24.70;81.20
38458;DHT22;24239;48.058;10.486;2022-07-09T14:03:00;24.70;81.10
38458;DHT22;24239;48.058;10.486;2022-07-09T14:05:29;24.70;80.50
38458;DHT22;24239;48.058;10.486;2022-07-09T14:07:58;24.70;80.20
38458;DHT22;24239;48.058;10.486;2022-07-09T14:10:26;24.90;81.80
38458;DHT22;24239;48.058;10.486;2022-07-09T14:12:52;24.90;81.50
38458;DHT22;24239;48.058;10.486;2022-07-09T14:15:18;25.10;81.50
38458;DHT22;24239;48.058;10.486;2022-07-09T14:17:44;24.90;82.00
38458;DHT22;24239;48.058;10.486;2022-07-09T14:20:10;25.20;81.90
38458;DHT22;24239;48.058;10.486;2022-07-09T14:22:36;25.20;80.60
38458;DHT22;24239;48.058;10.486;2022-07-09T14:25:03;25.10;79.80
38458;DHT22;24239;48.058;10.486;2022-07-09T14:27:29;24.90;81.40
38458;DHT22;24239;48.058;10.486;2022-07-09T14:29:54;25.00;80.40
38458;DHT22;24239;48.058;10.486;2022-07-09T14:32:20;25.10;80.00
38458;DHT22;24239;48.058;10.486;2022-07-09T14:34:46;25.30;81.50
38458;DHT22;24239;48.058;10.486;2022-07-09T14:37:12;25.20;81.60
38458;DHT22;24239;48.058;10.486;2022-07-09T14:39:41;25.40;79.00
38458;DHT22;24239;48.058;10.486;2022-07-09T14:42:06;25.40;77.60
38458;DHT22;24239;48.058;10.486;2022-07-09T14:44:32;25.50;78.10
38458;DHT22;24239;48.058;10.486;2022-07-09T14:46:59;25.40;79.60
38458;DHT22;24239;48.058;10.486;2022-07-09T14:49:26;25.40;79.90
38458;DHT22;24239;48.058;10.486;2022-07-09T14:51:52;25.80;79.40
38458;DHT22;24239;48.058;10.486;2022-07-09T14:54:18;26.00;80.80
38458;DHT22;24239;48.058;10.486;2022-07-09T14:56:45;26.20;77.40
38458;DHT22;24239;48.058;10.486;2022-07-09T14:59:11;26.10;77.10
38458;DHT22;24239;48.058;10.486;2022-07-09T15:01:38;25.80;80.70
38458;DHT22;24239;48.058;10.486;2022-07-09T15:04:04;25.60;79.90
38458;DHT22;24239;48.058;10.486;2022-07-09T15:06:30;25.40;81.30
38458;DHT22;24239;48.058;10.486;2022-07-09T15:08:56;25.30;80.40
38458;DHT22;24239;48.058;10.486;2022-07-09T15:11:25;25.20;78.80
38458;DHT22;24239;48.058;10.486;2022-07-09T15:13:51;25.20;78.70
38458;DHT22;24239;48.058;10.486;2022-07-09T15:16:17;25.40;79.40
38458;DHT22;24239;48.058;10.486;2022-07-09T15:18:42;25.30;78.70
38458;DHT22;24239;48.058;10.486;2022-07-09T15:21:08;25.20;79.00